sensor_id;sensor_type;location;lat;lon;timestamp;P1;durP1;ratioP1;P2;durP2;ratioP2
24751;SDS011;27246;52.376;4.628;2023-08-20T00:03:26;6.40;;;2.00;;
24751;SDS011;27246;52.376;4.628;2023-08-20T00:08:28;6.45;;;2.22;;
24751;SDS011;27246;52.376;4.628;2023-08-20T00:13:29;5.10;;;1.92;;
24751;SDS011;27246;52.376;4.628;2023-08-20T00:18:31;11.00;;;2.67;;
24751;SDS011;27246;52.376;4.628;2023-08-20T00:23:34;9.18;;;3.55;;
24751;SDS011;27246;52.376;4.628;2023-08-20T00:28:38;5.88;;;2.42;;
24751;SDS011;27246;52.376;4.628;2023-08-20T00:33:40;5.60;;;1.90;;
24751;SDS011;27246;52.376;4.628;2023-08-20T00:38:57;7.97;;;2.20;;
24751;SDS011;27246;52.376;4.628;2023-08-20T00:43:59;9.88;;;2.33;;
24751;SDS011;27246;52.376;4.628;2023-08-20T00:49:01;4.63;;;2.22;;
24751;SDS011;27246;52.376;4.628;2023-08-20T00:54:03;6.80;;;2.38;;
24751;SDS011;27246;52.376;4.628;2023-08-20T00:59:07;7.93;;;1.92;;
24751;SDS011;27246;52.376;4.628;2023-08-20T01:04:08;4.78;;;1.95;;
24751;SDS011;27246;52.376;4.628;2023-08-20T01:14:39;11.13;;;2.58;;
24751;SDS011;27246;52.376;4.628;2023-08-20T01:19:41;7.05;;;1.90;;
24751;SDS011;27246;52.376;4.628;2023-08-20T01:30:11;7.00;;;2.22;;
24751;SDS011;27246;52.376;4.628;2023-08-20T01:35:15;8.05;;;2.90;;
24751;SDS011;27246;52.376;4.628;2023-08-20T01:40:18;5.40;;;2.00;;
24751;SDS011;27246;52.376;4.628;2023-08-20T01:45:19;4.47;;;2.08;;
24751;SDS011;27246;52.376;4.628;2023-08-20T01:50:23;8.82;;;2.35;;
24751;SDS011;27246;52.376;4.628;2023-08-20T01:55:25;7.95;;;2.05;;
24751;SDS011;27246;52.376;4.628;2023-08-20T02:00:28;6.05;;;1.85;;
24751;SDS011;27246;52.376;4.628;2023-08-20T02:05:32;6.45;;;2.15;;
24751;SDS011;27246;52.376;4.628;2023-08-20T02:10:33;6.65;;;2.10;;
24751;SDS011;27246;52.376;4.628;2023-08-20T02:15:39;7.50;;;2.63;;
24751;SDS011;27246;52.376;4.628;2023-08-20T02:20:42;6.50;;;2.35;;
24751;SDS011;27246;52.376;4.628;2023-08-20T02:25:45;5.43;;;2.25;;
24751;SDS011;27246;52.376;4.628;2023-08-20T02:30:47;5.40;;;2.30;;
24751;SDS011;27246;52.376;4.628;2023-08-20T02:35:49;4.70;;;1.98;;
24751;SDS011;27246;52.376;4.628;2023-08-20T02:40:53;5.43;;;2.38;;
24751;SDS011;27246;52.376;4.628;2023-08-20T02:45:55;6.65;;;1.90;;
24751;SDS011;27246;52.376;4.628;2023-08-20T02:50:57;3.50;;;2.10;;
24751;SDS011;27246;52.376;4.628;2023-08-20T02:55:58;8.15;;;2.45;;
24751;SDS011;27246;52.376;4.628;2023-08-20T03:01:00;7.13;;;2.55;;
24751;SDS011;27246;52.376;4.628;2023-08-20T03:06:02;5.80;;;2.30;;
24751;SDS011;27246;52.376;4.628;2023-08-20T03:11:04;5.43;;;2.20;;
24751;SDS011;27246;52.376;4.628;2023-08-20T03:16:06;6.72;;;2.97;;
24751;SDS011;27246;52.376;4.628;2023-08-20T03:21:08;5.15;;;1.98;;
24751;SDS011;27246;52.376;4.628;2023-08-20T03:26:10;6.63;;;2.42;;
24751;SDS011;27246;52.376;4.628;2023-08-20T03:31:11;8.40;;;2.20;;
24751;SDS011;27246;52.376;4.628;2023-08-20T03:36:16;5.75;;;2.33;;
24751;SDS011;27246;52.376;4.628;2023-08-20T03:41:18;7.18;;;2.63;;
24751;SDS011;27246;52.376;4.628;2023-08-20T03:46:20;6.18;;;2.20;;
24751;SDS011;27246;52.376;4.628;2023-08-20T03:51:22;5.90;;;2.22;;
24751;SDS011;27246;52.376;4.628;2023-08-20T03:56:24;10.18;;;2.88;;
24751;SDS011;27246;52.376;4.628;2023-08-20T04:01:26;7.13;;;2.72;;
24751;SDS011;27246;52.376;4.628;2023-08-20T04:06:27;5.43;;;2.40;;
24751;SDS011;27246;52.376;4.628;2023-08-20T04:11:29;6.43;;;2.42;;
24751;SDS011;27246;52.376;4.628;2023-08-20T04:16:31;6.03;;;2.17;;
24751;SDS011;27246;52.376;4.628;2023-08-20T04:21:33;6.97;;;2.22;;
24751;SDS011;27246;52.376;4.628;2023-08-20T04:26:36;8.40;;;2.60;;
24751;SDS011;27246;52.376;4.628;2023-08-20T04:31:39;7.80;;;1.98;;
24751;SDS011;27246;52.376;4.628;2023-08-20T04:36:43;6.05;;;2.28;;
24751;SDS011;27246;52.376;4.628;2023-08-20T04:41:45;9.38;;;2.38;;
24751;SDS011;27246;52.376;4.628;2023-08-20T04:46:49;6.72;;;1.85;;
24751;SDS011;27246;52.376;4.628;2023-08-20T04:51:52;8.40;;;2.22;;
24751;SDS011;27246;52.376;4.628;2023-08-20T04:56:54;10.77;;;2.38;;
24751;SDS011;27246;52.376;4.628;2023-08-20T05:01:57;5.78;;;2.00;;
24751;SDS011;27246;52.376;4.628;2023-08-20T05:07:12;8.68;;;2.30;;
24751;SDS011;27246;52.376;4.628;2023-08-20T05:12:13;11.43;;;2.53;;
24751;SDS011;27246;52.376;4.628;2023-08-20T05:17:15;5.75;;;2.05;;
24751;SDS011;27246;52.376;4.628;2023-08-20T05:22:18;11.15;;;2.30;;
24751;SDS011;27246;52.376;4.628;2023-08-20T05:27:19;5.47;;;1.90;;
24751;SDS011;27246;52.376;4.628;2023-08-20T05:32:24;6.88;;;2.15;;
24751;SDS011;27246;52.376;4.628;2023-08-20T05:37:27;7.82;;;2.28;;
24751;SDS011;27246;52.376;4.628;2023-08-20T05:42:29;7.38;;;2.20;;
24751;SDS011;27246;52.376;4.628;2023-08-20T05:47:36;8.93;;;2.10;;
24751;SDS011;27246;52.376;4.628;2023-08-20T05:52:41;14.40;;;2.65;;
24751;SDS011;27246;52.376;4.628;2023-08-20T05:57:42;8.45;;;2.80;;
24751;SDS011;27246;52.376;4.628;2023-08-20T06:02:44;9.20;;;2.08;;
24751;SDS011;27246;52.376;4.628;2023-08-20T06:07:47;10.05;;;2.40;;
24751;SDS011;27246;52.376;4.628;2023-08-20T06:12:49;8.02;;;2.72;;
24751;SDS011;27246;52.376;4.628;2023-08-20T06:17:50;9.93;;;2.33;;
24751;SDS011;27246;52.376;4.628;2023-08-20T06:22:52;9.38;;;2.53;;
24751;SDS011;27246;52.376;4.628;2023-08-20T06:27:54;7.53;;;2.33;;
24751;SDS011;27246;52.376;4.628;2023-08-20T06:32:55;11.18;;;2.42;;
24751;SDS011;27246;52.376;4.628;2023-08-20T06:37:57;9.43;;;2.45;;
24751;SDS011;27246;52.376;4.628;2023-08-20T06:42:59;9.68;;;2.80;;
24751;SDS011;27246;52.376;4.628;2023-08-20T06:48:01;7.88;;;2.42;;
24751;SDS011;27246;52.376;4.628;2023-08-20T06:53:02;8.60;;;2.40;;
24751;SDS011;27246;52.376;4.628;2023-08-20T06:58:04;10.48;;;2.65;;
24751;SDS011;27246;52.376;4.628;2023-08-20T07:03:06;8.55;;;2.28;;
24751;SDS011;27246;52.376;4.628;2023-08-20T07:08:08;9.98;;;2.90;;
24751;SDS011;27246;52.376;4.628;2023-08-20T07:13:10;8.43;;;2.17;;
24751;SDS011;27246;52.376;4.628;2023-08-20T07:18:11;5.88;;;2.13;;
24751;SDS011;27246;52.376;4.628;2023-08-20T07:23:14;7.10;;;2.13;;
24751;SDS011;27246;52.376;4.628;2023-08-20T07:28:16;7.38;;;1.88;;
24751;SDS011;27246;52.376;4.628;2023-08-20T07:33:28;10.55;;;2.45;;
24751;SDS011;27246;52.376;4.628;2023-08-20T07:38:29;8.98;;;1.83;;
24751;SDS011;27246;52.376;4.628;2023-08-20T07:43:31;6.47;;;1.70;;
24751;SDS011;27246;52.376;4.628;2023-08-20T07:48:33;7.47;;;1.95;;
24751;SDS011;27246;52.376;4.628;2023-08-20T07:53:36;5.88;;;1.40;;
24751;SDS011;27246;52.376;4.628;2023-08-20T07:58:38;7.65;;;1.88;;
24751;SDS011;27246;52.376;4.628;2023-08-20T08:03:40;4.22;;;1.50;;
24751;SDS011;27246;52.376;4.628;2023-08-20T08:08:42;6.43;;;2.13;;
24751;SDS011;27246;52.376;4.628;2023-08-20T08:13:45;5.57;;;1.80;;
24751;SDS011;27246;52.376;4.628;2023-08-20T08:18:47;7.25;;;1.70;;
24751;SDS011;27246;52.376;4.628;2023-08-20T08:23:49;7.50;;;1.90;;
24751;SDS011;27246;52.376;4.628;2023-08-20T08:28:50;10.60;;;2.10;;
24751;SDS011;27246;52.376;4.628;2023-08-20T08:33:52;11.05;;;2.53;;
24751;SDS011;27246;52.376;4.628;2023-08-20T08:38:54;3.05;;;1.88;;
24751;SDS011;27246;52.376;4.628;2023-08-20T08:43:56;8.15;;;1.73;;
24751;SDS011;27246;52.376;4.628;2023-08-20T08:48:58;7.25;;;1.58;;
24751;SDS011;27246;52.376;4.628;2023-08-20T08:54:01;6.20;;;1.67;;
24751;SDS011;27246;52.376;4.628;2023-08-20T08:59:04;9.52;;;2.22;;
24751;SDS011;27246;52.376;4.628;2023-08-20T09:04:07;9.30;;;1.83;;
24751;SDS011;27246;52.376;4.628;2023-08-20T09:09:09;5.68;;;1.80;;
24751;SDS011;27246;52.376;4.628;2023-08-20T09:14:23;5.72;;;1.50;;
24751;SDS011;27246;52.376;4.628;2023-08-20T09:19:29;9.02;;;2.40;;
24751;SDS011;27246;52.376;4.628;2023-08-20T09:24:41;9.30;;;2.40;;
24751;SDS011;27246;52.376;4.628;2023-08-20T09:29:44;6.75;;;1.75;;
24751;SDS011;27246;52.376;4.628;2023-08-20T09:34:49;6.25;;;2.05;;
24751;SDS011;27246;52.376;4.628;2023-08-20T09:39:52;6.38;;;1.63;;
24751;SDS011;27246;52.376;4.628;2023-08-20T09:44:54;11.68;;;2.08;;
24751;SDS011;27246;52.376;4.628;2023-08-20T09:49:56;9.85;;;2.05;;
24751;SDS011;27246;52.376;4.628;2023-08-20T09:55:08;7.43;;;2.10;;
24751;SDS011;27246;52.376;4.628;2023-08-20T10:00:14;9.13;;;2.90;;
24751;SDS011;27246;52.376;4.628;2023-08-20T10:05:17;12.52;;;2.42;;
24751;SDS011;27246;52.376;4.628;2023-08-20T10:10:18;8.57;;;2.80;;
24751;SDS011;27246;52.376;4.628;2023-08-20T10:15:20;6.97;;;2.03;;
24751;SDS011;27246;52.376;4.628;2023-08-20T10:20:22;9.52;;;2.05;;
24751;SDS011;27246;52.376;4.628;2023-08-20T10:25:24;6.93;;;1.70;;
24751;SDS011;27246;52.376;4.628;2023-08-20T10:30:26;8.18;;;2.25;;
24751;SDS011;27246;52.376;4.628;2023-08-20T10:35:30;9.00;;;2.22;;
24751;SDS011;27246;52.376;4.628;2023-08-20T10:46:07;4.75;;;1.60;;
24751;SDS011;27246;52.376;4.628;2023-08-20T10:56:41;6.90;;;1.83;;
24751;SDS011;27246;52.376;4.628;2023-08-20T11:01:50;6.00;;;1.87;;
24751;SDS011;27246;52.376;4.628;2023-08-20T11:06:54;8.73;;;2.20;;
24751;SDS011;27246;52.376;4.628;2023-08-20T11:11:59;7.55;;;2.22;;
24751;SDS011;27246;52.376;4.628;2023-08-20T11:17:01;4.88;;;1.10;;
24751;SDS011;27246;52.376;4.628;2023-08-20T11:22:03;9.98;;;1.67;;
24751;SDS011;27246;52.376;4.628;2023-08-20T11:27:05;4.47;;;1.30;;
24751;SDS011;27246;52.376;4.628;2023-08-20T11:32:08;6.63;;;1.10;;
24751;SDS011;27246;52.376;4.628;2023-08-20T11:37:10;10.50;;;2.28;;
24751;SDS011;27246;52.376;4.628;2023-08-20T11:42:12;8.52;;;1.90;;
24751;SDS011;27246;52.376;4.628;2023-08-20T11:47:17;3.22;;;1.20;;
24751;SDS011;27246;52.376;4.628;2023-08-20T11:52:19;3.90;;;1.00;;
24751;SDS011;27246;52.376;4.628;2023-08-20T11:57:22;6.63;;;1.70;;
24751;SDS011;27246;52.376;4.628;2023-08-20T12:02:26;3.83;;;1.23;;
24751;SDS011;27246;52.376;4.628;2023-08-20T12:07:41;5.82;;;1.70;;
24751;SDS011;27246;52.376;4.628;2023-08-20T12:12:42;7.63;;;1.38;;
24751;SDS011;27246;52.376;4.628;2023-08-20T12:18:04;5.80;;;1.20;;
24751;SDS011;27246;52.376;4.628;2023-08-20T12:23:08;4.45;;;1.40;;
24751;SDS011;27246;52.376;4.628;2023-08-20T12:28:10;6.63;;;1.30;;
24751;SDS011;27246;52.376;4.628;2023-08-20T12:33:11;4.97;;;1.05;;
24751;SDS011;27246;52.376;4.628;2023-08-20T12:38:13;4.88;;;1.02;;
24751;SDS011;27246;52.376;4.628;2023-08-20T12:43:15;5.10;;;1.25;;
24751;SDS011;27246;52.376;4.628;2023-08-20T12:48:17;1.90;;;0.90;;
24751;SDS011;27246;52.376;4.628;2023-08-20T12:53:18;2.90;;;0.95;;
24751;SDS011;27246;52.376;4.628;2023-08-20T12:58:20;4.85;;;1.10;;
24751;SDS011;27246;52.376;4.628;2023-08-20T13:03:22;5.07;;;1.27;;
24751;SDS011;27246;52.376;4.628;2023-08-20T13:08:24;3.60;;;0.95;;
24751;SDS011;27246;52.376;4.628;2023-08-20T13:13:26;3.13;;;1.35;;
24751;SDS011;27246;52.376;4.628;2023-08-20T13:18:28;4.15;;;1.10;;
24751;SDS011;27246;52.376;4.628;2023-08-20T13:23:30;4.03;;;0.93;;
24751;SDS011;27246;52.376;4.628;2023-08-20T13:28:32;2.25;;;0.68;;
24751;SDS011;27246;52.376;4.628;2023-08-20T13:33:36;5.38;;;1.10;;
24751;SDS011;27246;52.376;4.628;2023-08-20T13:38:38;2.35;;;0.70;;
24751;SDS011;27246;52.376;4.628;2023-08-20T13:43:40;4.32;;;0.88;;
24751;SDS011;27246;52.376;4.628;2023-08-20T13:48:42;2.22;;;0.80;;
24751;SDS011;27246;52.376;4.628;2023-08-20T13:53:43;4.07;;;1.17;;
24751;SDS011;27246;52.376;4.628;2023-08-20T13:58:45;5.03;;;1.45;;
24751;SDS011;27246;52.376;4.628;2023-08-20T14:03:47;3.83;;;0.70;;
24751;SDS011;27246;52.376;4.628;2023-08-20T14:08:49;3.83;;;0.80;;
24751;SDS011;27246;52.376;4.628;2023-08-20T14:13:51;2.88;;;0.95;;
24751;SDS011;27246;52.376;4.628;2023-08-20T14:18:52;2.42;;;0.90;;
24751;SDS011;27246;52.376;4.628;2023-08-20T14:23:54;4.55;;;1.13;;
24751;SDS011;27246;52.376;4.628;2023-08-20T14:28:56;4.38;;;0.93;;
24751;SDS011;27246;52.376;4.628;2023-08-20T14:33:57;3.45;;;1.27;;
24751;SDS011;27246;52.376;4.628;2023-08-20T14:38:59;2.72;;;0.65;;
24751;SDS011;27246;52.376;4.628;2023-08-20T14:44:01;3.95;;;1.10;;
24751;SDS011;27246;52.376;4.628;2023-08-20T14:49:03;3.35;;;1.10;;
24751;SDS011;27246;52.376;4.628;2023-08-20T14:54:06;2.58;;;0.98;;
24751;SDS011;27246;52.376;4.628;2023-08-20T14:59:09;3.70;;;0.82;;
24751;SDS011;27246;52.376;4.628;2023-08-20T15:04:11;3.03;;;0.90;;
24751;SDS011;27246;52.376;4.628;2023-08-20T15:09:13;6.22;;;0.98;;
24751;SDS011;27246;52.376;4.628;2023-08-20T15:14:16;4.25;;;0.70;;
24751;SDS011;27246;52.376;4.628;2023-08-20T15:19:18;1.65;;;0.68;;
24751;SDS011;27246;52.376;4.628;2023-08-20T15:24:20;2.97;;;0.88;;
24751;SDS011;27246;52.376;4.628;2023-08-20T15:29:22;3.47;;;1.13;;
24751;SDS011;27246;52.376;4.628;2023-08-20T15:34:23;4.65;;;1.33;;
24751;SDS011;27246;52.376;4.628;2023-08-20T15:39:25;5.63;;;1.10;;
24751;SDS011;27246;52.376;4.628;2023-08-20T15:44:27;2.58;;;0.90;;
24751;SDS011;27246;52.376;4.628;2023-08-20T15:49:28;3.50;;;0.95;;
24751;SDS011;27246;52.376;4.628;2023-08-20T15:54:30;3.72;;;1.13;;
24751;SDS011;27246;52.376;4.628;2023-08-20T15:59:32;5.13;;;1.02;;
24751;SDS011;27246;52.376;4.628;2023-08-20T16:04:35;2.92;;;0.93;;
24751;SDS011;27246;52.376;4.628;2023-08-20T16:09:40;5.55;;;1.70;;
24751;SDS011;27246;52.376;4.628;2023-08-20T16:14:44;7.85;;;1.70;;
24751;SDS011;27246;52.376;4.628;2023-08-20T16:19:46;8.05;;;1.98;;
24751;SDS011;27246;52.376;4.628;2023-08-20T16:24:48;5.15;;;2.03;;
24751;SDS011;27246;52.376;4.628;2023-08-20T16:29:52;3.55;;;1.02;;
24751;SDS011;27246;52.376;4.628;2023-08-20T16:34:54;6.53;;;0.90;;
24751;SDS011;27246;52.376;4.628;2023-08-20T16:39:57;3.65;;;1.20;;
24751;SDS011;27246;52.376;4.628;2023-08-20T16:44:59;2.60;;;0.98;;
24751;SDS011;27246;52.376;4.628;2023-08-20T16:50:01;3.55;;;1.15;;
24751;SDS011;27246;52.376;4.628;2023-08-20T16:55:03;3.83;;;1.08;;
24751;SDS011;27246;52.376;4.628;2023-08-20T17:00:05;2.45;;;0.73;;
24751;SDS011;27246;52.376;4.628;2023-08-20T17:05:08;3.08;;;1.00;;
24751;SDS011;27246;52.376;4.628;2023-08-20T17:10:10;3.47;;;0.88;;
24751;SDS011;27246;52.376;4.628;2023-08-20T17:15:12;5.13;;;1.13;;
24751;SDS011;27246;52.376;4.628;2023-08-20T17:20:14;2.85;;;0.95;;
24751;SDS011;27246;52.376;4.628;2023-08-20T17:25:16;4.25;;;1.30;;
24751;SDS011;27246;52.376;4.628;2023-08-20T17:30:21;3.80;;;0.70;;
24751;SDS011;27246;52.376;4.628;2023-08-20T17:35:22;3.90;;;1.45;;
24751;SDS011;27246;52.376;4.628;2023-08-20T17:40:25;3.65;;;1.02;;
24751;SDS011;27246;52.376;4.628;2023-08-20T17:45:26;3.10;;;0.80;;
24751;SDS011;27246;52.376;4.628;2023-08-20T17:50:28;3.58;;;0.80;;
24751;SDS011;27246;52.376;4.628;2023-08-20T17:55:31;2.85;;;1.13;;
24751;SDS011;27246;52.376;4.628;2023-08-20T18:00:34;1.65;;;0.90;;
24751;SDS011;27246;52.376;4.628;2023-08-20T18:05:37;2.05;;;0.73;;
24751;SDS011;27246;52.376;4.628;2023-08-20T18:10:39;2.15;;;0.75;;
24751;SDS011;27246;52.376;4.628;2023-08-20T18:15:41;5.47;;;1.13;;
24751;SDS011;27246;52.376;4.628;2023-08-20T18:20:43;4.85;;;1.33;;
24751;SDS011;27246;52.376;4.628;2023-08-20T18:25:44;2.78;;;1.38;;
24751;SDS011;27246;52.376;4.628;2023-08-20T18:30:49;4.30;;;1.40;;
24751;SDS011;27246;52.376;4.628;2023-08-20T18:35:58;5.03;;;1.83;;
24751;SDS011;27246;52.376;4.628;2023-08-20T18:41:02;3.85;;;1.33;;
24751;SDS011;27246;52.376;4.628;2023-08-20T18:46:05;8.13;;;1.58;;
24751;SDS011;27246;52.376;4.628;2023-08-20T18:51:09;4.15;;;1.20;;
24751;SDS011;27246;52.376;4.628;2023-08-20T18:56:11;6.20;;;1.30;;
24751;SDS011;27246;52.376;4.628;2023-08-20T19:01:13;3.63;;;1.10;;
24751;SDS011;27246;52.376;4.628;2023-08-20T19:06:15;8.73;;;2.78;;
24751;SDS011;27246;52.376;4.628;2023-08-20T19:11:16;5.22;;;2.40;;
24751;SDS011;27246;52.376;4.628;2023-08-20T19:16:18;6.28;;;1.92;;
24751;SDS011;27246;52.376;4.628;2023-08-20T19:21:20;4.28;;;1.90;;
24751;SDS011;27246;52.376;4.628;2023-08-20T19:26:21;4.38;;;2.22;;
24751;SDS011;27246;52.376;4.628;2023-08-20T19:31:23;5.18;;;2.17;;
24751;SDS011;27246;52.376;4.628;2023-08-20T19:36:25;9.90;;;3.03;;
24751;SDS011;27246;52.376;4.628;2023-08-20T19:41:27;4.45;;;2.20;;
24751;SDS011;27246;52.376;4.628;2023-08-20T19:46:28;5.65;;;2.10;;
24751;SDS011;27246;52.376;4.628;2023-08-20T19:51:30;6.55;;;1.92;;
24751;SDS011;27246;52.376;4.628;2023-08-20T19:56:32;6.15;;;2.22;;
24751;SDS011;27246;52.376;4.628;2023-08-20T20:01:44;4.63;;;2.28;;
24751;SDS011;27246;52.376;4.628;2023-08-20T20:06:47;6.95;;;2.83;;
24751;SDS011;27246;52.376;4.628;2023-08-20T20:11:50;5.93;;;1.92;;
24751;SDS011;27246;52.376;4.628;2023-08-20T20:16:52;5.40;;;2.15;;
24751;SDS011;27246;52.376;4.628;2023-08-20T20:21:54;5.95;;;1.88;;
24751;SDS011;27246;52.376;4.628;2023-08-20T20:26:55;4.57;;;2.10;;
24751;SDS011;27246;52.376;4.628;2023-08-20T20:32:04;8.18;;;3.22;;
24751;SDS011;27246;52.376;4.628;2023-08-20T20:37:06;5.78;;;3.00;;
24751;SDS011;27246;52.376;4.628;2023-08-20T20:42:08;5.45;;;2.20;;
24751;SDS011;27246;52.376;4.628;2023-08-20T20:47:09;9.07;;;2.30;;
24751;SDS011;27246;52.376;4.628;2023-08-20T20:52:11;4.95;;;2.40;;
24751;SDS011;27246;52.376;4.628;2023-08-20T20:57:13;6.70;;;2.28;;
24751;SDS011;27246;52.376;4.628;2023-08-20T21:02:14;5.95;;;2.17;;
24751;SDS011;27246;52.376;4.628;2023-08-20T21:07:16;6.60;;;2.40;;
24751;SDS011;27246;52.376;4.628;2023-08-20T21:12:18;4.80;;;2.03;;
24751;SDS011;27246;52.376;4.628;2023-08-20T21:17:19;6.45;;;2.63;;
24751;SDS011;27246;52.376;4.628;2023-08-20T21:22:21;5.45;;;2.58;;
24751;SDS011;27246;52.376;4.628;2023-08-20T21:27:27;5.50;;;2.28;;
24751;SDS011;27246;52.376;4.628;2023-08-20T21:32:28;9.43;;;2.22;;
24751;SDS011;27246;52.376;4.628;2023-08-20T21:37:30;4.75;;;2.10;;
24751;SDS011;27246;52.376;4.628;2023-08-20T21:42:32;5.32;;;2.22;;
24751;SDS011;27246;52.376;4.628;2023-08-20T21:47:37;8.02;;;2.40;;
24751;SDS011;27246;52.376;4.628;2023-08-20T21:52:40;7.22;;;2.42;;
24751;SDS011;27246;52.376;4.628;2023-08-20T21:57:42;3.47;;;1.88;;
24751;SDS011;27246;52.376;4.628;2023-08-20T22:02:44;5.55;;;3.05;;
24751;SDS011;27246;52.376;4.628;2023-08-20T22:07:48;4.93;;;2.45;;
24751;SDS011;27246;52.376;4.628;2023-08-20T22:12:51;4.65;;;2.50;;
24751;SDS011;27246;52.376;4.628;2023-08-20T22:17:53;8.48;;;2.63;;
24751;SDS011;27246;52.376;4.628;2023-08-20T22:22:54;7.25;;;3.08;;
24751;SDS011;27246;52.376;4.628;2023-08-20T22:27:56;5.28;;;2.38;;
24751;SDS011;27246;52.376;4.628;2023-08-20T22:32:58;7.40;;;3.40;;
24751;SDS011;27246;52.376;4.628;2023-08-20T22:38:09;4.63;;;3.08;;
24751;SDS011;27246;52.376;4.628;2023-08-20T22:43:11;7.63;;;3.25;;
24751;SDS011;27246;52.376;4.628;2023-08-20T22:48:13;5.75;;;3.90;;
24751;SDS011;27246;52.376;4.628;2023-08-20T22:53:15;9.90;;;4.85;;
24751;SDS011;27246;52.376;4.628;2023-08-20T22:58:18;11.90;;;6.80;;
24751;SDS011;27246;52.376;4.628;2023-08-20T23:03:20;7.75;;;4.82;;
24751;SDS011;27246;52.376;4.628;2023-08-20T23:08:22;7.05;;;3.78;;
24751;SDS011;27246;52.376;4.628;2023-08-20T23:13:23;6.03;;;3.40;;
24751;SDS011;27246;52.376;4.628;2023-08-20T23:18:25;7.20;;;3.58;;
24751;SDS011;27246;52.376;4.628;2023-08-20T23:23:27;5.80;;;3.45;;
24751;SDS011;27246;52.376;4.628;2023-08-20T23:28:29;7.10;;;4.50;;
24751;SDS011;27246;52.376;4.628;2023-08-20T23:33:32;6.55;;;4.63;;
24751;SDS011;27246;52.376;4.628;2023-08-20T23:38:33;5.55;;;3.90;;
24751;SDS011;27246;52.376;4.628;2023-08-20T23:43:41;7.40;;;4.28;;
24751;SDS011;27246;52.376;4.628;2023-08-20T23:48:43;7.70;;;4.18;;
24751;SDS011;27246;52.376;4.628;2023-08-20T23:53:45;11.07;;;4.68;;
24751;SDS011;27246;52.376;4.628;2023-08-20T23:58:46;4.90;;;3.70;;
